Pealertown, Pennsylvania
Current Conditions -  °F | °C
As of 11:35 AM on Thursday 23 Oct 2014 (Local Time) from KHZL Reporting Station
Drizzle Drizzle  
Wind Chill: 38°   Ceiling: 500
Heat Index: 45°   Visibility: 10mi
Dew Point: 43°   Wind: 15mph
Humidity: 93%   Direction: 320°NW
Pressure: 29.87"   Gusts: 23mph
Location:  41.1114°N, 76.3684°W
Report Text: KHZL 231535Z AUTO 32013G20KT 10SM -DZ OVC005 07/06 A2987 RMK AO2
Loading
Personal Weather Stations






























Interactive Weather Map
Tropical Storm Tracking
New forecast layout! Learn more

10-Day Weather Forecast

Advertisements
Track Severe Weather on mobile